Time;durP1;ratioP1;P1;durP2;ratioP2;P2;SDS_P1;SDS_P2;PMS_P1;PMS_P2;Temp;Humidity;BMP_temperature;BMP_pressure;BME280_temperature;BME280_humidity;BME280_pressure;Samples;Min_cycle;Max_cycle;Signal;HPM_P1;HPM_P2
2023/10/01 00:01:33;;;;;;;0.10;0.10;;;14.20;99.90;;;;;;5083418;28;20502;-79
2023/10/01 00:03:58;;;;;;;0.10;0.10;;;14.30;99.90;;;;;;5075690;28;20517;-79
2023/10/01 00:06:25;;;;;;;0.10;0.10;;;14.30;99.90;;;;;;5089289;28;20468;-78
2023/10/01 00:08:50;;;;;;;0.10;0.10;;;14.30;99.90;;;;;;5088808;28;20185;-78
2023/10/01 00:11:16;;;;;;;0.10;0.10;;;14.30;99.90;;;;;;5076316;28;20548;-78
2023/10/01 00:13:41;;;;;;;0.10;0.10;;;14.40;99.90;;;;;;5097008;28;20221;-79
2023/10/01 00:16:07;;;;;;;0.10;0.10;;;14.30;99.90;;;;;;5074852;28;20184;-78
2023/10/01 00:18:34;;;;;;;0.10;0.10;;;14.30;99.90;;;;;;5088491;28;20192;-79
2023/10/01 00:20:59;;;;;;;0.10;0.10;;;14.30;99.90;;;;;;5094501;28;20748;-79
2023/10/01 00:23:25;;;;;;;0.10;0.10;;;14.30;99.90;;;;;;5098288;28;20463;-78
2023/10/01 00:25:50;;;;;;;0.20;0.20;;;14.30;99.90;;;;;;5086282;28;20188;-78
2023/10/01 00:28:16;;;;;;;0.10;0.10;;;14.20;99.90;;;;;;5081488;28;20181;-79
2023/10/01 00:30:42;;;;;;;0.10;0.10;;;14.20;99.90;;;;;;5069286;28;20178;-79
2023/10/01 00:33:10;;;;;;;0.10;0.10;;;14.20;99.90;;;;;;5082223;28;20181;-78
2023/10/01 00:35:39;;;;;;;0.10;0.10;;;14.10;99.90;;;;;;5072455;28;20512;-79
2023/10/01 00:38:05;;;;;;;0.10;0.10;;;14.10;99.90;;;;;;5076934;28;20924;-78
2023/10/01 00:40:31;;;;;;;0.10;0.10;;;14.10;99.90;;;;;;5086306;28;20485;-79
2023/10/01 00:42:57;;;;;;;0.10;0.10;;;14.00;99.90;;;;;;5081675;28;20802;-78
2023/10/01 00:45:23;;;;;;;0.10;0.10;;;14.00;99.90;;;;;;5089455;28;20173;-79
2023/10/01 00:47:51;;;;;;;0.10;0.10;;;14.00;99.90;;;;;;5079842;28;20489;-79
2023/10/01 00:50:21;;;;;;;0.10;0.10;;;14.00;99.90;;;;;;5084169;28;20174;-79
2023/10/01 00:52:49;;;;;;;0.10;0.10;;;14.00;99.90;;;;;;5074407;28;20444;-79
2023/10/01 00:55:15;;;;;;;0.10;0.10;;;14.10;99.90;;;;;;5074251;28;20467;-78
2023/10/01 00:57:41;;;;;;;0.10;0.10;;;14.00;99.90;;;;;;5074879;28;20439;-79
2023/10/01 01:00:09;;;;;;;0.10;0.10;;;14.00;99.90;;;;;;5082028;28;20484;-79
2023/10/01 01:02:38;;;;;;;0.10;0.10;;;14.00;99.90;;;;;;5103579;28;20574;-79
2023/10/01 01:05:20;;;;;;;0.10;0.10;;;14.00;99.90;;;;;;5101178;28;20443;-79
2023/10/01 01:07:49;;;;;;;0.10;0.10;;;14.10;99.90;;;;;;5097057;28;20437;-79
2023/10/01 01:10:18;;;;;;;0.10;0.10;;;14.00;99.90;;;;;;5092053;28;20455;-79
2023/10/01 01:12:53;;;;;;;0.10;0.10;;;14.00;99.90;;;;;;5089237;28;20442;-79
2023/10/01 01:15:21;;;;;;;0.10;0.10;;;13.90;99.90;;;;;;5098200;28;20442;-79
2023/10/01 01:17:48;;;;;;;0.10;0.10;;;14.00;99.90;;;;;;5080884;28;20512;-79
2023/10/01 01:20:13;;;;;;;0.10;0.10;;;14.00;99.90;;;;;;5085101;28;20466;-79
2023/10/01 01:22:50;;;;;;;0.10;0.10;;;14.00;99.90;;;;;;5086288;28;20460;-79
2023/10/01 01:25:20;;;;;;;0.10;0.10;;;14.00;99.90;;;;;;5092687;28;20188;-79
2023/10/01 01:27:46;;;;;;;0.20;0.20;;;14.00;99.90;;;;;;5073427;28;20430;-79
2023/10/01 01:30:18;;;;;;;0.10;0.10;;;14.00;99.90;;;;;;5080337;28;20487;-79
2023/10/01 01:32:45;;;;;;;0.10;0.10;;;14.00;99.90;;;;;;5091018;28;20442;-79
2023/10/01 01:35:10;;;;;;;0.10;0.10;;;14.00;99.90;;;;;;5088001;28;20436;-78
2023/10/01 01:37:47;;;;;;;0.10;0.10;;;14.00;99.90;;;;;;5075919;28;20442;-79
2023/10/01 01:40:24;;;;;;;0.10;0.10;;;14.00;99.90;;;;;;5100507;28;20601;-79
2023/10/01 01:42:51;;;;;;;0.10;0.10;;;14.00;99.90;;;;;;5100955;28;20545;-79
2023/10/01 01:45:19;;;;;;;0.10;0.10;;;14.10;99.90;;;;;;5098259;28;20423;-79
2023/10/01 01:47:45;;;;;;;0.10;0.10;;;14.00;99.90;;;;;;5092808;28;20447;-79
2023/10/01 01:50:18;;;;;;;0.10;0.10;;;14.00;99.90;;;;;;5078165;28;20451;-79
2023/10/01 01:52:51;;;;;;;0.10;0.10;;;14.00;99.90;;;;;;5081312;28;20879;-79
2023/10/01 01:55:26;;;;;;;0.10;0.10;;;14.00;99.90;;;;;;5090136;28;20432;-79
2023/10/01 02:00:35;;;;;;;0.10;0.10;;;14.00;99.90;;;;;;5088157;28;20487;-79
2023/10/01 02:03:10;;;;;;;0.10;0.10;;;14.00;99.90;;;;;;5079257;28;20448;-79
2023/10/01 02:05:41;;;;;;;0.10;0.10;;;14.00;99.90;;;;;;5102861;28;20445;-79
2023/10/01 02:08:09;;;;;;;0.10;0.10;;;14.00;99.90;;;;;;5092145;28;20446;-79
2023/10/01 02:10:44;;;;;;;0.10;0.10;;;14.00;99.90;;;;;;5078067;28;20443;-79
2023/10/01 02:13:13;;;;;;;0.10;0.10;;;14.00;99.90;;;;;;5074318;28;20445;-79
2023/10/01 02:15:39;;;;;;;0.10;0.10;;;14.00;99.90;;;;;;5081361;28;20443;-79
2023/10/01 02:18:08;;;;;;;0.10;0.10;;;14.00;99.90;;;;;;5087595;28;20446;-79
2023/10/01 02:20:37;;;;;;;0.10;0.10;;;14.00;99.90;;;;;;5083683;28;20482;-78
2023/10/01 02:23:03;;;;;;;0.10;0.10;;;13.90;99.90;;;;;;5094460;28;20446;-79
2023/10/01 02:25:38;;;;;;;0.10;0.10;;;13.90;99.90;;;;;;5094490;28;20493;-79
2023/10/01 02:28:15;;;;;;;0.10;0.10;;;13.90;99.90;;;;;;5082590;28;20704;-79
2023/10/01 02:30:41;;;;;;;0.10;0.10;;;13.90;99.90;;;;;;5091030;28;21365;-79
2023/10/01 02:33:20;;;;;;;0.10;0.10;;;13.90;99.90;;;;;;5087136;28;20504;-79
2023/10/01 02:35:55;;;;;;;0.10;0.10;;;13.90;99.90;;;;;;5072796;28;20428;-79
2023/10/01 02:41:08;;;;;;;0.10;0.10;;;13.80;99.90;;;;;;5079744;28;20994;-79
2023/10/01 02:43:35;;;;;;;0.10;0.10;;;13.90;99.90;;;;;;5059930;28;20832;-79
2023/10/01 02:46:12;;;;;;;0.10;0.10;;;13.90;99.90;;;;;;5065642;28;20792;-79
2023/10/01 02:48:40;;;;;;;0.10;0.10;;;13.80;99.90;;;;;;5073374;28;20961;-79
2023/10/01 02:51:15;;;;;;;0.10;0.10;;;13.80;99.90;;;;;;5091048;28;20474;-79
2023/10/01 02:56:33;;;;;;;0.10;0.10;;;13.80;99.90;;;;;;5087657;28;20465;-78
2023/10/01 02:59:08;;;;;;;0.10;0.10;;;13.80;99.90;;;;;;5082285;28;20878;-78
2023/10/01 03:01:34;;;;;;;0.10;0.10;;;13.80;99.90;;;;;;5079766;28;20532;-79
2023/10/01 03:04:05;;;;;;;0.10;0.10;;;13.80;99.90;;;;;;5084595;28;20438;-79
2023/10/01 03:06:33;;;;;;;0.10;0.10;;;13.80;99.90;;;;;;5101070;28;20913;-79
2023/10/01 03:11:24;;;;;;;0.10;0.10;;;13.80;99.90;;;;;;5102010;28;20450;-78
2023/10/01 03:13:51;;;;;;;0.10;0.10;;;13.90;99.90;;;;;;5088573;28;20186;-79
2023/10/01 03:16:45;;;;;;;0.10;0.10;;;13.90;99.90;;;;;;5071316;28;20474;-79
2023/10/01 03:19:17;;;;;;;0.10;0.10;;;13.80;99.90;;;;;;5080703;28;20916;-78
2023/10/01 03:24:29;;;;;;;0.10;0.10;;;13.80;99.90;;;;;;5099726;28;20805;-79
2023/10/01 03:26:57;;;;;;;0.10;0.10;;;13.80;99.90;;;;;;5072571;28;20526;-79
2023/10/01 03:29:34;;;;;;;0.10;0.10;;;13.70;99.90;;;;;;5092687;28;20923;-79
2023/10/01 03:32:27;;;;;;;0.10;0.10;;;13.70;99.90;;;;;;5086368;28;20558;-79
2023/10/01 03:34:46;;;;;;;0.10;0.10;;;13.80;99.90;;;;;;5085152;28;20587;-79
2023/10/01 03:37:19;;;;;;;0.10;0.10;;;13.80;99.90;;;;;;5099368;28;20907;-79
2023/10/01 03:39:46;;;;;;;0.10;0.10;;;13.80;99.90;;;;;;5084106;28;20554;-79
2023/10/01 03:42:13;;;;;;;0.10;0.10;;;13.70;99.90;;;;;;5089372;28;20621;-79
2023/10/01 03:44:59;;;;;;;0.10;0.10;;;13.60;99.90;;;;;;5094899;28;21027;-79
2023/10/01 03:47:29;;;;;;;0.10;0.10;;;13.70;99.90;;;;;;5095824;28;20446;-79
2023/10/01 03:49:57;;;;;;;0.10;0.10;;;13.80;99.90;;;;;;5088766;28;20466;-79
2023/10/01 03:52:29;;;;;;;0.10;0.10;;;13.70;99.90;;;;;;5085581;28;20455;-79
2023/10/01 03:57:25;;;;;;;0.10;0.10;;;13.80;99.90;;;;;;5096516;28;20443;-79
2023/10/01 03:59:54;;;;;;;0.10;0.10;;;13.70;99.90;;;;;;5083497;28;20533;-79
2023/10/01 04:05:21;;;;;;;0.10;0.10;;;13.70;99.90;;;;;;5084192;28;20433;-79
2023/10/01 04:07:50;;;;;;;0.10;0.10;;;13.70;99.90;;;;;;5071706;28;20455;-79
2023/10/01 04:12:54;;;;;;;0.10;0.10;;;13.70;99.90;;;;;;5102769;28;20464;-79
2023/10/01 04:15:30;;;;;;;0.10;0.10;;;13.70;99.90;;;;;;5095175;28;20462;-79
2023/10/01 04:23:29;;;;;;;0.10;0.10;;;13.70;99.90;;;;;;5085685;28;20538;-78
2023/10/01 04:26:07;;;;;;;0.10;0.10;;;13.70;99.90;;;;;;5088321;28;20497;-79
2023/10/01 04:28:41;;;;;;;0.10;0.10;;;13.70;99.90;;;;;;5088203;28;20443;-79
2023/10/01 04:31:09;;;;;;;0.10;0.10;;;13.70;99.90;;;;;;5087846;28;20434;-79
2023/10/01 04:33:36;;;;;;;0.10;0.10;;;13.70;99.90;;;;;;5081804;28;20814;-79
2023/10/01 04:36:04;;;;;;;0.10;0.10;;;13.70;99.90;;;;;;5085215;28;20442;-79
2023/10/01 04:38:32;;;;;;;0.10;0.10;;;13.70;99.90;;;;;;5077151;28;20571;-78
2023/10/01 04:40:58;;;;;;;0.10;0.10;;;13.70;99.90;;;;;;5062351;28;20475;-79
2023/10/01 04:43:26;;;;;;;0.10;0.10;;;13.70;99.90;;;;;;5093651;28;20427;-79
2023/10/01 04:45:52;;;;;;;0.10;0.10;;;13.80;99.90;;;;;;5087847;28;20419;-79
2023/10/01 04:48:25;;;;;;;0.10;0.10;;;13.70;99.90;;;;;;5105082;28;20424;-78
2023/10/01 04:50:55;;;;;;;0.10;0.10;;;13.70;99.90;;;;;;5113940;28;20527;-78
2023/10/01 04:53:22;;;;;;;0.10;0.10;;;13.70;99.90;;;;;;5080881;28;20608;-78
2023/10/01 04:56:00;;;;;;;0.10;0.10;;;13.70;99.90;;;;;;5087659;28;20437;-78
2023/10/01 04:58:32;;;;;;;0.10;0.10;;;13.70;99.90;;;;;;5083836;28;20427;-78
2023/10/01 05:00:58;;;;;;;0.10;0.10;;;13.60;99.90;;;;;;5088373;28;20490;-78
2023/10/01 05:03:39;;;;;;;0.10;0.10;;;13.60;99.90;;;;;;5085985;28;20449;-78
2023/10/01 05:06:08;;;;;;;0.10;0.10;;;13.60;99.90;;;;;;5093156;28;20519;-78
2023/10/01 05:08:38;;;;;;;0.10;0.10;;;13.60;99.90;;;;;;5073559;28;20478;-78
2023/10/01 05:11:13;;;;;;;0.10;0.10;;;13.60;99.90;;;;;;5084142;28;21168;-79
2023/10/01 05:13:43;;;;;;;0.10;0.10;;;13.60;99.90;;;;;;5100953;28;20938;-78
2023/10/01 05:16:12;;;;;;;0.10;0.10;;;13.70;99.90;;;;;;5107951;28;20433;-79
2023/10/01 05:18:48;;;;;;;0.10;0.10;;;13.70;99.90;;;;;;5080194;28;20459;-79
2023/10/01 05:21:18;;;;;;;0.10;0.10;;;13.60;99.90;;;;;;5094551;28;20487;-79
2023/10/01 05:23:47;;;;;;;0.10;0.10;;;13.60;99.90;;;;;;5099355;28;20441;-79
2023/10/01 05:26:20;;;;;;;0.10;0.10;;;13.60;99.90;;;;;;5085919;28;20474;-79
2023/10/01 05:28:47;;;;;;;0.10;0.10;;;13.60;99.90;;;;;;5068257;28;21086;-77
2023/10/01 05:31:13;;;;;;;0.10;0.10;;;13.60;99.90;;;;;;5052800;28;20441;-79
2023/10/01 05:33:39;;;;;;;0.10;0.10;;;13.60;99.90;;;;;;5088438;28;20439;-80
2023/10/01 05:36:05;;;;;;;0.10;0.10;;;13.50;99.90;;;;;;5078072;28;20188;-78
2023/10/01 05:38:35;;;;;;;0.10;0.10;;;13.50;99.90;;;;;;5099721;28;20450;-79
2023/10/01 05:41:09;;;;;;;0.10;0.10;;;13.50;99.90;;;;;;5085681;28;20706;-79
2023/10/01 05:43:37;;;;;;;0.10;0.10;;;13.50;99.90;;;;;;5096737;28;20533;-79
2023/10/01 05:46:09;;;;;;;0.10;0.10;;;13.50;99.90;;;;;;5064504;28;20444;-80
2023/10/01 05:48:39;;;;;;;0.10;0.10;;;13.50;99.90;;;;;;5063774;28;20439;-80
2023/10/01 05:51:20;;;;;;;0.10;0.10;;;13.50;99.90;;;;;;5090615;28;20492;-79
2023/10/01 05:53:46;;;;;;;0.10;0.10;;;13.40;99.90;;;;;;5076904;28;20427;-79
2023/10/01 05:56:17;;;;;;;0.10;0.10;;;13.40;99.90;;;;;;5085482;28;20886;-80
2023/10/01 05:58:43;;;;;;;0.10;0.10;;;13.40;99.90;;;;;;5066703;28;20428;-78
2023/10/01 06:01:16;;;;;;;0.10;0.10;;;13.40;99.90;;;;;;5082475;28;20477;-80
2023/10/01 06:03:49;;;;;;;0.10;0.10;;;13.40;99.90;;;;;;5082774;28;20474;-80
2023/10/01 06:06:24;;;;;;;0.10;0.10;;;13.40;99.90;;;;;;5088940;28;20493;-80
2023/10/01 06:08:58;;;;;;;0.10;0.10;;;13.40;99.90;;;;;;5105265;28;20433;-80
2023/10/01 06:11:38;;;;;;;0.10;0.10;;;13.40;99.90;;;;;;5091114;28;20438;-79
2023/10/01 06:14:05;;;;;;;0.10;0.10;;;13.40;99.90;;;;;;5083007;28;20486;-79
2023/10/01 06:16:37;;;;;;;0.20;0.20;;;13.40;99.90;;;;;;5067152;28;20452;-80
2023/10/01 06:19:03;;;;;;;0.10;0.10;;;13.40;99.90;;;;;;5082945;28;20444;-79
2023/10/01 06:21:31;;;;;;;0.10;0.10;;;13.40;99.90;;;;;;5072304;28;20487;-79
2023/10/01 06:23:58;;;;;;;0.10;0.10;;;13.40;99.90;;;;;;5082480;28;20470;-79
2023/10/01 06:26:36;;;;;;;0.10;0.10;;;13.50;99.90;;;;;;5090308;28;20442;-80
2023/10/01 06:29:02;;;;;;;0.10;0.10;;;13.50;99.90;;;;;;5090998;28;20503;-80
2023/10/01 06:31:40;;;;;;;0.10;0.10;;;13.50;99.90;;;;;;5078500;28;20879;-79
2023/10/01 06:34:06;;;;;;;0.10;0.10;;;13.60;99.90;;;;;;5082850;28;20548;-80
2023/10/01 06:36:31;;;;;;;0.10;0.10;;;13.70;99.90;;;;;;5083818;28;20435;-80
2023/10/01 06:38:59;;;;;;;0.10;0.10;;;13.70;99.90;;;;;;5084840;28;20256;-80
2023/10/01 06:41:28;;;;;;;0.10;0.10;;;13.70;99.90;;;;;;5073259;28;20225;-80
2023/10/01 06:43:54;;;;;;;0.10;0.10;;;13.70;99.90;;;;;;5079726;28;20436;-81
2023/10/01 06:46:23;;;;;;;0.10;0.10;;;13.70;99.90;;;;;;5077611;28;20456;-80
2023/10/01 06:48:50;;;;;;;0.10;0.10;;;13.80;99.90;;;;;;5077293;28;20453;-80
2023/10/01 06:51:21;;;;;;;0.10;0.10;;;13.70;99.90;;;;;;5084353;28;20473;-79
2023/10/01 06:53:59;;;;;;;0.10;0.10;;;13.70;99.90;;;;;;5091431;28;20458;-79
2023/10/01 06:56:32;;;;;;;0.10;0.10;;;13.80;99.90;;;;;;5087557;28;20939;-79
2023/10/01 07:01:47;;;;;;;0.10;0.10;;;13.70;99.90;;;;;;5085644;28;21069;-79
2023/10/01 07:04:20;;;;;;;0.10;0.10;;;13.80;99.90;;;;;;5073761;28;20451;-79
2023/10/01 07:06:50;;;;;;;0.10;0.10;;;13.80;99.90;;;;;;5072937;28;20585;-79
2023/10/01 07:09:27;;;;;;;0.10;0.10;;;13.80;99.90;;;;;;5072172;28;20859;-79
2023/10/01 07:11:57;;;;;;;0.10;0.10;;;13.80;99.90;;;;;;5090647;28;20488;-79
2023/10/01 07:14:31;;;;;;;0.20;0.20;;;13.80;99.90;;;;;;5089995;28;20488;-79
2023/10/01 07:17:03;;;;;;;0.10;0.10;;;13.90;99.90;;;;;;5091228;28;20935;-79
2023/10/01 07:19:31;;;;;;;0.10;0.10;;;13.90;99.90;;;;;;5070870;28;20442;-78
2023/10/01 07:21:57;;;;;;;0.10;0.10;;;13.80;99.90;;;;;;5097686;28;21061;-78
2023/10/01 07:24:25;;;;;;;0.10;0.10;;;13.90;99.90;;;;;;5097305;28;20553;-79
2023/10/01 07:26:51;;;;;;;0.00;0.00;;;14.00;99.90;;;;;;5091904;28;20203;-79
2023/10/01 07:29:16;;;;;;;0.10;0.10;;;14.00;99.90;;;;;;5102253;28;20433;-79
2023/10/01 07:31:43;;;;;;;0.10;0.10;;;14.00;99.90;;;;;;5094594;28;20192;-79
2023/10/01 07:34:16;;;;;;;0.10;0.10;;;14.10;99.90;;;;;;5091538;28;20173;-79
2023/10/01 07:36:42;;;;;;;0.10;0.10;;;14.10;99.90;;;;;;5084725;28;20519;-78
2023/10/01 07:39:09;;;;;;;0.10;0.10;;;14.10;99.90;;;;;;5090174;28;20927;-79
2023/10/01 07:41:38;;;;;;;0.10;0.10;;;14.10;99.90;;;;;;5088274;28;20475;-79
2023/10/01 07:44:08;;;;;;;0.10;0.10;;;14.10;99.90;;;;;;5078724;28;20444;-79
2023/10/01 07:46:34;;;;;;;0.10;0.10;;;14.10;99.90;;;;;;5080493;28;20432;-78
2023/10/01 07:49:00;;;;;;;0.10;0.10;;;14.00;99.90;;;;;;5069025;28;20476;-79
2023/10/01 07:51:35;;;;;;;0.10;0.10;;;14.00;99.90;;;;;;5078864;28;20539;-79
2023/10/01 07:54:09;;;;;;;0.10;0.10;;;14.00;99.90;;;;;;5087145;28;20184;-77
2023/10/01 07:56:36;;;;;;;0.10;0.10;;;14.00;99.90;;;;;;5071422;28;20439;-78
2023/10/01 08:01:59;;;;;;;0.10;0.10;;;14.00;99.90;;;;;;5073679;28;20498;-78
2023/10/01 08:05:33;;;;;;;0.10;0.10;;;14.00;99.90;;;;;;5073592;28;21398;-78
2023/10/01 08:07:22;;;;;;;0.10;0.10;;;14.00;99.90;;;;;;5076895;28;20504;-78
2023/10/01 08:09:51;;;;;;;0.10;0.10;;;14.00;99.90;;;;;;5087957;28;20431;-78
2023/10/01 08:15:15;;;;;;;0.10;0.10;;;14.10;99.90;;;;;;5096242;28;20426;-79
2023/10/01 08:17:43;;;;;;;0.10;0.10;;;14.20;99.90;;;;;;5094269;28;20461;-79
2023/10/01 08:20:18;;;;;;;0.10;0.10;;;14.20;99.90;;;;;;5092245;28;20431;-78
2023/10/01 08:23:09;;;;;;;0.10;0.10;;;14.20;99.90;;;;;;5095393;28;20988;-79
2023/10/01 08:25:32;;;;;;;0.10;0.10;;;14.30;99.90;;;;;;5090498;28;20457;-78
2023/10/01 08:30:43;;;;;;;0.10;0.10;;;14.40;99.90;;;;;;5092252;28;20424;-79
2023/10/01 08:33:22;;;;;;;0.10;0.10;;;14.40;99.90;;;;;;5097633;28;20423;-79
2023/10/01 08:36:01;;;;;;;0.10;0.10;;;14.50;99.90;;;;;;5073195;28;20795;-79
2023/10/01 08:38:34;;;;;;;0.10;0.10;;;14.60;99.90;;;;;;5072813;28;20939;-78
2023/10/01 08:41:02;;;;;;;0.10;0.10;;;14.70;99.90;;;;;;5090310;28;20970;-78
2023/10/01 08:43:31;;;;;;;0.10;0.10;;;14.80;99.90;;;;;;5087523;28;20441;-79
2023/10/01 08:46:07;;;;;;;0.10;0.10;;;14.70;99.90;;;;;;5099440;28;20474;-79
2023/10/01 08:48:36;;;;;;;0.10;0.10;;;14.80;99.90;;;;;;5091483;28;20431;-79
2023/10/01 08:51:11;;;;;;;0.10;0.10;;;14.90;99.90;;;;;;5099072;28;20480;-79
2023/10/01 08:53:42;;;;;;;0.10;0.10;;;14.90;99.90;;;;;;5089513;28;20458;-79
2023/10/01 08:56:13;;;;;;;0.20;0.20;;;15.10;99.90;;;;;;5071169;28;20540;-79
2023/10/01 08:59:00;;;;;;;0.10;0.10;;;15.20;99.90;;;;;;5090305;28;20540;-79
2023/10/01 09:01:29;;;;;;;0.10;0.10;;;15.10;99.90;;;;;;5084495;28;20973;-79
2023/10/01 09:03:57;;;;;;;0.10;0.10;;;15.10;99.90;;;;;;5094050;28;20835;-79
2023/10/01 09:06:26;;;;;;;0.10;0.10;;;15.20;99.90;;;;;;5094248;28;20450;-79
2023/10/01 09:08:55;;;;;;;0.00;0.00;;;15.20;99.90;;;;;;5099071;28;20485;-79
2023/10/01 09:11:47;;;;;;;0.10;0.10;;;15.10;99.90;;;;;;5094256;28;20503;-79
2023/10/01 09:14:21;;;;;;;0.10;0.10;;;15.20;99.90;;;;;;5101662;28;20447;-79
2023/10/01 09:16:57;;;;;;;0.10;0.10;;;15.30;99.90;;;;;;5099480;28;20485;-80
2023/10/01 09:19:30;;;;;;;0.10;0.10;;;15.40;99.90;;;;;;5099318;28;20426;-79
2023/10/01 09:22:04;;;;;;;0.10;0.10;;;15.40;99.90;;;;;;5094411;28;20491;-79
2023/10/01 09:24:39;;;;;;;0.10;0.10;;;15.50;99.90;;;;;;5081302;28;20435;-79
2023/10/01 09:27:09;;;;;;;0.10;0.10;;;15.60;99.90;;;;;;5085457;28;20430;-78
2023/10/01 09:29:45;;;;;;;0.10;0.10;;;15.60;99.90;;;;;;5091956;28;20484;-80
2023/10/01 09:32:13;;;;;;;0.10;0.10;;;15.60;99.90;;;;;;5093635;28;20469;-79
2023/10/01 09:34:53;;;;;;;0.10;0.10;;;15.60;99.90;;;;;;5093018;28;20446;-79
2023/10/01 09:37:34;;;;;;;0.10;0.10;;;15.80;99.90;;;;;;5096956;28;20447;-80
2023/10/01 09:40:32;;;;;;;0.10;0.10;;;15.80;99.90;;;;;;5102418;28;20435;-79
2023/10/01 09:43:02;;;;;;;0.10;0.10;;;15.80;99.90;;;;;;5094050;28;20447;-79
2023/10/01 09:45:37;;;;;;;0.10;0.10;;;15.80;99.90;;;;;;5077763;28;20469;-80
2023/10/01 09:48:09;;;;;;;0.10;0.10;;;15.90;99.90;;;;;;5075281;28;20478;-80
2023/10/01 09:50:41;;;;;;;0.10;0.10;;;16.10;99.90;;;;;;5091978;28;20447;-79
2023/10/01 09:53:13;;;;;;;0.10;0.10;;;16.20;99.90;;;;;;5110663;28;20438;-79
2023/10/01 09:55:49;;;;;;;0.10;0.10;;;16.20;99.90;;;;;;5084910;28;20527;-79
2023/10/01 09:58:24;;;;;;;0.00;0.00;;;16.30;99.90;;;;;;5099489;28;20430;-79
2023/10/01 10:00:54;;;;;;;0.00;0.00;;;16.20;99.90;;;;;;5097731;28;20476;-80
2023/10/01 10:03:21;;;;;;;0.00;0.00;;;16.30;99.90;;;;;;5111346;28;20551;-80
2023/10/01 10:05:47;;;;;;;0.10;0.10;;;16.20;99.90;;;;;;5104659;28;20431;-79
2023/10/01 10:08:20;;;;;;;0.10;0.10;;;16.20;99.90;;;;;;5097408;28;20455;-79
2023/10/01 10:10:52;;;;;;;0.07;0.07;;;16.10;99.90;;;;;;5108461;28;20449;-79
2023/10/01 10:13:38;;;;;;;0.10;0.10;;;16.00;99.90;;;;;;5097197;28;20473;-79
2023/10/01 10:19:23;;;;;;;0.10;0.10;;;16.00;99.90;;;;;;5098094;28;20995;-79
2023/10/01 10:24:46;;;;;;;0.10;0.10;;;16.00;99.90;;;;;;5099555;28;20446;-79
2023/10/01 10:27:17;;;;;;;0.10;0.10;;;16.00;99.90;;;;;;5091563;28;20435;-79
2023/10/01 10:30:00;;;;;;;0.10;0.10;;;16.10;99.90;;;;;;5102709;28;20416;-85
2023/10/01 10:32:30;;;;;;;0.10;0.10;;;16.10;99.90;;;;;;5101584;28;20513;-84
2023/10/01 10:35:14;;;;;;;0.10;0.10;;;16.20;99.90;;;;;;5103115;28;20419;-84
2023/10/01 10:37:44;;;;;;;0.10;0.10;;;16.20;99.90;;;;;;5083640;28;20439;-85
2023/10/01 10:43:02;;;;;;;0.10;0.10;;;16.30;99.90;;;;;;5077422;28;21105;-85
2023/10/01 10:45:47;;;;;;;0.10;0.10;;;16.20;99.90;;;;;;5093196;28;20463;-84
2023/10/01 10:48:16;;;;;;;0.10;0.10;;;16.30;99.90;;;;;;5066917;28;20458;-84
2023/10/01 10:50:57;;;;;;;0.10;0.10;;;16.20;99.90;;;;;;5075395;28;20529;-83
2023/10/01 10:53:40;;;;;;;0.00;0.00;;;16.40;99.90;;;;;;5070319;28;20790;-85
2023/10/01 10:56:07;;;;;;;0.10;0.10;;;16.40;99.90;;;;;;5087256;27;20427;-84
2023/10/01 10:59:01;;;;;;;0.10;0.10;;;16.50;99.90;;;;;;5081730;28;20865;-83
2023/10/01 11:01:43;;;;;;;0.10;0.10;;;16.60;99.90;;;;;;5083286;28;20479;-84
2023/10/01 11:04:09;;;;;;;0.10;0.10;;;16.80;99.90;;;;;;5073461;28;20909;-83
2023/10/01 11:06:44;;;;;;;0.10;0.10;;;16.80;99.90;;;;;;5085030;28;20455;-83
2023/10/01 11:09:24;;;;;;;0.10;0.10;;;17.00;99.90;;;;;;5090296;28;20502;-84
2023/10/01 11:12:18;;;;;;;0.10;0.10;;;17.00;99.90;;;;;;5093691;28;20442;-85
2023/10/01 11:14:55;;;;;;;0.10;0.10;;;17.00;99.90;;;;;;5093296;28;20570;-85
2023/10/01 11:17:22;;;;;;;0.10;0.10;;;17.00;99.90;;;;;;5098247;28;20427;-85
2023/10/01 11:19:47;;;;;;;0.10;0.10;;;16.70;99.90;;;;;;5089973;28;20808;-83
2023/10/01 11:22:13;;;;;;;0.10;0.10;;;16.60;99.90;;;;;;5071483;28;20475;-85
2023/10/01 11:24:41;;;;;;;0.10;0.10;;;16.60;99.90;;;;;;5076163;28;20229;-84
2023/10/01 11:27:11;;;;;;;0.10;0.10;;;16.60;99.90;;;;;;5094211;28;20187;-84
2023/10/01 11:29:38;;;;;;;0.10;0.10;;;16.60;99.90;;;;;;5107974;28;20430;-83
2023/10/01 11:32:07;;;;;;;0.10;0.10;;;16.60;99.90;;;;;;5106593;28;20946;-84
2023/10/01 11:34:45;;;;;;;0.10;0.10;;;16.60;99.90;;;;;;5108933;28;20422;-82
2023/10/01 11:37:15;;;;;;;0.10;0.10;;;16.70;99.90;;;;;;5098622;28;20438;-84
2023/10/01 11:39:49;;;;;;;0.10;0.10;;;16.70;99.90;;;;;;5099817;28;20509;-83
2023/10/01 11:42:26;;;;;;;0.10;0.10;;;16.70;99.90;;;;;;5075079;28;20612;-83
2023/10/01 11:44:52;;;;;;;0.10;0.10;;;16.70;99.90;;;;;;5099256;28;20438;-83
2023/10/01 11:47:31;;;;;;;0.10;0.10;;;16.80;99.90;;;;;;5103145;28;20487;-84
2023/10/01 11:50:07;;;;;;;0.10;0.10;;;16.80;99.90;;;;;;5098300;28;21219;-82
2023/10/01 11:52:33;;;;;;;0.10;0.10;;;16.80;99.90;;;;;;5081795;28;20534;-84
2023/10/01 11:54:59;;;;;;;0.10;0.10;;;16.80;99.90;;;;;;5090189;28;20453;-83
2023/10/01 11:57:31;;;;;;;0.10;0.10;;;16.80;99.90;;;;;;5090158;28;20431;-83
2023/10/01 11:59:58;;;;;;;0.10;0.10;;;16.90;99.90;;;;;;5088866;28;20233;-83
2023/10/01 12:02:26;;;;;;;0.10;0.10;;;17.00;99.90;;;;;;5091028;28;20479;-83
2023/10/01 12:04:59;;;;;;;0.10;0.10;;;17.00;99.90;;;;;;5098474;28;20419;-82
2023/10/01 12:07:31;;;;;;;0.10;0.10;;;16.90;99.90;;;;;;5100642;28;20504;-83
2023/10/01 12:09:58;;;;;;;0.10;0.10;;;16.90;99.90;;;;;;5096760;28;20956;-83
2023/10/01 12:12:25;;;;;;;0.10;0.10;;;16.80;99.90;;;;;;5103623;28;20458;-83
2023/10/01 12:14:55;;;;;;;0.10;0.10;;;16.80;99.90;;;;;;5087889;28;20468;-85
2023/10/01 12:17:28;;;;;;;0.10;0.10;;;16.80;99.90;;;;;;5088282;28;20427;-82
2023/10/01 12:20:03;;;;;;;0.10;0.10;;;16.80;99.90;;;;;;5072649;28;21060;-83
2023/10/01 12:22:30;;;;;;;0.10;0.10;;;16.80;99.90;;;;;;5081705;28;20478;-84
2023/10/01 12:24:57;;;;;;;0.10;0.10;;;16.80;99.90;;;;;;5089001;28;20939;-83
2023/10/01 12:27:47;;;;;;;0.10;0.10;;;16.60;99.90;;;;;;5076681;28;20459;-82
2023/10/01 12:30:27;;;;;;;0.10;0.10;;;16.60;99.90;;;;;;5068361;28;20442;-83
2023/10/01 12:32:55;;;;;;;0.10;0.10;;;16.50;99.90;;;;;;5081850;28;20547;-83
2023/10/01 12:35:27;;;;;;;0.10;0.10;;;16.30;99.90;;;;;;5075483;28;20918;-84
2023/10/01 12:38:05;;;;;;;0.10;0.10;;;16.20;99.90;;;;;;5092782;28;20439;-83
2023/10/01 12:40:37;;;;;;;0.10;0.10;;;16.10;99.90;;;;;;5096562;28;20435;-82
2023/10/01 12:43:03;;;;;;;0.10;0.10;;;16.00;99.90;;;;;;5089056;28;20461;-83
2023/10/01 12:45:31;;;;;;;0.10;0.10;;;15.80;99.90;;;;;;5103355;28;20813;-82
2023/10/01 12:48:07;;;;;;;0.10;0.10;;;15.80;99.90;;;;;;5105225;28;20923;-82
2023/10/01 12:50:33;;;;;;;0.10;0.10;;;15.70;99.90;;;;;;5088103;28;20418;-82
2023/10/01 12:55:51;;;;;;;0.10;0.10;;;15.70;99.90;;;;;;5105270;28;20850;-83
2023/10/01 12:58:18;;;;;;;0.10;0.10;;;15.80;99.90;;;;;;5076821;28;20447;-83
2023/10/01 13:00:45;;;;;;;0.10;0.10;;;15.80;99.90;;;;;;5093153;28;20483;-82
2023/10/01 13:03:19;;;;;;;0.10;0.10;;;15.80;99.90;;;;;;5101034;28;20989;-81
2023/10/01 13:05:47;;;;;;;0.10;0.10;;;15.90;99.90;;;;;;5096157;28;20441;-81
2023/10/01 13:08:27;;;;;;;0.10;0.10;;;15.90;99.90;;;;;;5092531;28;20453;-82
2023/10/01 13:10:56;;;;;;;0.10;0.10;;;15.90;99.90;;;;;;5094144;28;20442;-80
2023/10/01 13:13:29;;;;;;;0.10;0.10;;;15.90;99.90;;;;;;5106759;28;20471;-80
2023/10/01 13:15:56;;;;;;;0.10;0.10;;;15.80;99.90;;;;;;5083362;28;20915;-81
2023/10/01 13:18:28;;;;;;;0.10;0.10;;;15.80;99.90;;;;;;5095442;28;20575;-80
2023/10/01 13:21:09;;;;;;;0.10;0.10;;;15.70;99.90;;;;;;5093230;28;20513;-81
2023/10/01 13:23:41;;;;;;;0.10;0.10;;;15.70;99.90;;;;;;5074898;28;20790;-81
2023/10/01 13:26:31;;;;;;;0.10;0.10;;;15.60;99.90;;;;;;5101285;28;21278;-81
2023/10/01 13:29:00;;;;;;;0.10;0.10;;;15.60;99.90;;;;;;5094991;28;20439;-82
2023/10/01 13:33:56;;;;;;;0.10;0.10;;;15.40;99.90;;;;;;5095168;28;20437;-80
2023/10/01 13:36:35;;;;;;;0.10;0.10;;;15.40;99.90;;;;;;5091948;28;20440;-79
2023/10/01 13:39:25;;;;;;;0.10;0.10;;;15.20;99.90;;;;;;5076783;28;20444;-79
2023/10/01 14:09:54;;;;;;;0.10;0.10;;;15.10;99.90;;;;;;5102019;28;20440;-78
2023/10/01 14:15:23;;;;;;;0.10;0.10;;;15.10;99.90;;;;;;5084202;28;20411;-78
2023/10/01 14:17:52;;;;;;;0.10;0.10;;;15.10;99.90;;;;;;5089563;28;20489;-79
2023/10/01 14:23:31;;;;;;;0.10;0.10;;;15.10;99.90;;;;;;5102674;28;20463;-79
2023/10/01 14:25:59;;;;;;;0.10;0.10;;;15.00;99.90;;;;;;5088015;28;20458;-79
2023/10/01 14:28:26;;;;;;;0.10;0.10;;;15.10;99.90;;;;;;5105572;28;20949;-79
2023/10/01 14:31:07;;;;;;;0.10;0.10;;;15.10;99.90;;;;;;5093171;28;20535;-78
2023/10/01 14:33:39;;;;;;;0.10;0.10;;;15.00;99.90;;;;;;5098572;28;20426;-78
2023/10/01 14:36:05;;;;;;;0.17;0.17;;;15.10;99.90;;;;;;5105282;28;20439;-78